X  Lukk Metar værinformasjon om luftfart     LEST Santiago-Rosalía de Castro Airport
Temperatur
13°C Temperatur
12°C Duggpunkt
94% Luftfuktighet



Vind
10 KM/T
6 MPT
3 M/S
5 KNP



20°
NNØ
Nåværende forhold

Delvis overskyet Delvis overskyet
Trykk 1036.91 (hPa) - 30.62 (inHg)
Sikt 6 (mil) - 9.7 (km)
Flyplass
Flyplass-kode LEST

Plassering: Santiago-Rosalía de Castro Airport
Avstand: 66 (km)

Metar:
LEST 190130Z 02005KT 330V070 9999 FEW004 13/12 Q1037 NOSIG

Tid: 19-02-2024 01:30 CET